West Haverstraw, NY (10993)

03:32 EST le 21 janvier 2017 (GMT -0500)
GARNERVILLE | | Change Station
Avis météorologiques actifs: Storm Watch

Alt. 177 ft 41.21 °N, 73.99 °W | Updated 12 minutes ago

Couvert
Couvert
37.9 ° F
Paraît 38 ° F
N
0.0
Vent Variable Vent de SSE

Aujourd'hui
Haut(e) -- | Bas -- ° F
--% Risque de précip.
Hier
Haut(e) -- | Bas -- ° F
Precip. -- pouce
Pression 29.87 pouce
Visibilité 0.8 Miles terrestres
Nuages
Refroidissement éolien 38 ° F
Point de rosée 37 ° F
Humidité 97%
Précipitations 0.00 pouce
Profondeur de la couche neigeuse Non disponible.
7:15 AM 4:59 PM
Dernier quartier, 37% visible
SPECI KHPN 210813Z 00000KT 3/4SM R16/2000V2800FT BR VV002 04/04 A2987 RMK AO2 T00440039
Pression 29.87 pouce
Visibilité 0.8 Miles terrestres
Nuages
Refroidissement éolien 38 ° F
Point de rosée 37 ° F
Humidité 97%
Précipitations 0.00 pouce
Profondeur de la couche neigeuse Non disponible.
7:15 AM 4:59 PM
Dernier quartier, 37% visible
SPECI KHPN 210813Z 00000KT 3/4SM R16/2000V2800FT BR VV002 04/04 A2987 RMK AO2 T00440039

Get Your Daily Forecast Email!

Thanks for signing up!

Be on the lookout for a verification email in your inbox.

You'll start receiving the daily forecast at 8 AM.

×

10-Day Weather Forecast

Almanac

Astronomie

Jan. 21, 2017 Lever Coucher
Temps réel
Crépuscule civil
Crépuscule nautique
Crépuscule astronomique
Lune
Durée de lumière visible
Longueur du jour
Tomorrow will be .
, % of the Moon is Illuminated

Extrêmes aujourd'hui

State Highs State Lows

Community

WunderPhotos

Upload Photos

1,962,540 Photos téléchargées !

WunderBlog® & News

Nearby

Qualité de l'air

  Qualité de l'air Indice de la qualité de l'air Polluant
Not available.

Épaisseur de neige

Station Depth Altitude

Activité sismique

Ville Distance Mag. Time & Date
Minimum magnitude displayed is 2.5.

Températures des eaux côtières

Lieu Température

Stations

Stations météo à proximité

Emplacement de la station Température Refroidissement éolien Point de rosée Humidité Vent Precip. Alt. Mise à jour Type
                   

Watches & Warnings

Storm Watch
Issued: 15:08 EST Jan. 20, 2017 – National Weather Service

... Storm watch in effect from late Sunday night through late
Monday night...

The National Weather Service in Upton has issued a storm watch...
which is in effect from late Sunday night through late Monday
night.

* Winds and seas... northeast winds 40 to 45 kt with gusts up to 60
kt on ocean... 35 to 40 kt with gusts to 50 kt on the nearshore
waters. Seas 16 to 21 feet on the ocean... and 5 to 10 ft on
Long Island Sound.

Precautionary/preparedness actions...

A storm watch is issued when the risk of storm force winds of
48 to 63 kt has significantly increased... but the specific timing
and/or location is still uncertain. It is intended to provide
additional lead time for mariners who may wish to consider
altering their plans.